Time;durP1;ratioP1;P1;durP2;ratioP2;P2;SDS_P1;SDS_P2;PMS_P1;PMS_P2;Temp;Humidity;BMP_temperature;BMP_pressure;BME280_temperature;BME280_humidity;BME280_pressure;Samples;Min_cycle;Max_cycle;Signal;HPM_P1;HPM_P2
2023/03/28 00:00:01;;;;;;;0.20;0.20;;;;;;;;;;5025488;28;20243;-70
2023/03/28 00:02:27;;;;;;;0.20;0.20;;;;;;;;;;5014376;28;20240;-69
2023/03/28 00:04:55;;;;;;;0.20;0.20;;;;;;;;;;5025673;28;20273;-70
2023/03/28 00:07:21;;;;;;;0.20;0.20;;;;;;;;;;5013689;28;20273;-70
2023/03/28 00:09:49;;;;;;;0.20;0.20;;;;;;;;;;5025082;28;20279;-69
2023/03/28 00:12:15;;;;;;;0.20;0.20;;;;;;;;;;5013989;28;20259;-68
2023/03/28 00:14:42;;;;;;;0.20;0.20;;;;;;;;;;5024267;28;20546;-69
2023/03/28 00:17:08;;;;;;;0.30;0.30;;;;;;;;;;5014015;28;20445;-69
2023/03/28 00:19:39;;;;;;;0.20;0.20;;;;;;;;;;5025481;28;20208;-68
2023/03/28 00:22:08;;;;;;;0.20;0.20;;;;;;;;;;5014390;28;20314;-69
2023/03/28 00:24:37;;;;;;;0.20;0.20;;;;;;;;;;5025322;28;20219;-69
2023/03/28 00:27:04;;;;;;;0.20;0.20;;;;;;;;;;5013836;28;20242;-69
2023/03/28 00:29:31;;;;;;;0.20;0.20;;;;;;;;;;5024352;28;20400;-69
2023/03/28 00:31:57;;;;;;;0.20;0.20;;;;;;;;;;5012959;28;20451;-69
2023/03/28 00:34:24;;;;;;;0.20;0.20;;;;;;;;;;5024186;28;20245;-69
2023/03/28 00:36:52;;;;;;;0.20;0.20;;;;;;;;;;5012936;28;20318;-69
2023/03/28 00:39:20;;;;;;;0.20;0.20;;;;;;;;;;5025004;28;20281;-69
2023/03/28 00:41:46;;;;;;;0.20;0.20;;;;;;;;;;5013971;28;20520;-69
2023/03/28 00:44:31;;;;;;;0.20;0.20;;;;;;;;;;5024110;28;20232;-69
2023/03/28 00:46:58;;;;;;;0.20;0.20;;;;;;;;;;5013048;28;20265;-69
2023/03/28 00:49:25;;;;;;;0.20;0.20;;;;;;;;;;5024280;28;20213;-69
2023/03/28 00:51:55;;;;;;;0.20;0.20;;;;;;;;;;5013164;28;20249;-69
2023/03/28 00:54:24;;;;;;;0.20;0.20;;;;;;;;;;5024098;28;20494;-69
2023/03/28 00:56:52;;;;;;;0.20;0.20;;;;;;;;;;5012686;28;20242;-69
2023/03/28 00:59:22;;;;;;;0.20;0.20;;;;;;;;;;5023615;28;20437;-68
2023/03/28 01:01:48;;;;;;;0.20;0.20;;;;;;;;;;5012765;28;20253;-69
2023/03/28 01:04:19;;;;;;;0.20;0.20;;;;;;;;;;5023321;28;20232;-69
2023/03/28 01:06:47;;;;;;;0.20;0.20;;;;;;;;;;5012682;28;20250;-69
2023/03/28 01:09:15;;;;;;;0.20;0.20;;;;;;;;;;5023566;28;20249;-69
2023/03/28 01:11:44;;;;;;;0.20;0.20;;;;;;;;;;5012738;28;20640;-69
2023/03/28 01:14:14;;;;;;;0.20;0.20;;;;;;;;;;5023045;28;20213;-68
2023/03/28 01:16:41;;;;;;;0.20;0.20;;;;;;;;;;5012682;28;20249;-69
2023/03/28 01:19:11;;;;;;;0.20;0.20;;;;;;;;;;5023519;28;20207;-68
2023/03/28 01:22:01;;;;;;;0.20;0.20;;;;;;;;;;5012601;28;20241;-69
2023/03/28 01:24:52;;;;;;;0.20;0.20;;;;;;;;;;5023522;28;20231;-68
2023/03/28 01:27:24;;;;;;;0.20;0.20;;;;;;;;;;5014903;28;20499;-69
2023/03/28 01:30:06;;;;;;;0.20;0.20;;;;;;;;;;5027118;28;20435;-69
2023/03/28 01:32:50;;;;;;;0.20;0.20;;;;;;;;;;4999682;28;20215;-69
2023/03/28 01:35:32;;;;;;;0.20;0.20;;;;;;;;;;5017267;28;20389;-68
2023/03/28 01:38:04;;;;;;;0.20;0.20;;;;;;;;;;5023928;28;20360;-68
2023/03/28 01:40:35;;;;;;;0.20;0.20;;;;;;;;;;5017002;28;20243;-68
2023/03/28 01:43:07;;;;;;;0.20;0.20;;;;;;;;;;5026177;28;20303;-68
2023/03/28 01:45:38;;;;;;;0.20;0.20;;;;;;;;;;5016847;28;20243;-68
2023/03/28 01:48:07;;;;;;;0.20;0.20;;;;;;;;;;5026031;28;20278;-68
2023/03/28 01:50:36;;;;;;;0.20;0.20;;;;;;;;;;5016779;28;20246;-69
2023/03/28 01:53:08;;;;;;;0.20;0.20;;;;;;;;;;5026026;28;20286;-68
2023/03/28 01:55:36;;;;;;;0.20;0.20;;;;;;;;;;5016643;28;20510;-68
2023/03/28 01:58:03;;;;;;;0.20;0.20;;;;;;;;;;5025812;28;20227;-67
2023/03/28 02:00:31;;;;;;;0.30;0.30;;;;;;;;;;5016311;28;20318;-68
2023/03/28 02:02:59;;;;;;;0.20;0.20;;;;;;;;;;5025773;28;20462;-66
2023/03/28 02:05:27;;;;;;;0.20;0.20;;;;;;;;;;5016540;28;20281;-68
2023/03/28 02:07:54;;;;;;;0.20;0.20;;;;;;;;;;5025459;28;20194;-68
2023/03/28 02:10:23;;;;;;;0.20;0.20;;;;;;;;;;5016171;28;20204;-68
2023/03/28 02:12:51;;;;;;;0.20;0.20;;;;;;;;;;5025367;28;20263;-68
2023/03/28 02:15:20;;;;;;;0.20;0.20;;;;;;;;;;5016220;28;20246;-68
2023/03/28 02:17:49;;;;;;;0.20;0.20;;;;;;;;;;5025269;28;20218;-69
2023/03/28 02:20:18;;;;;;;0.20;0.20;;;;;;;;;;5016381;28;20207;-69
2023/03/28 02:22:46;;;;;;;0.20;0.20;;;;;;;;;;5025038;28;20266;-68
2023/03/28 02:25:13;;;;;;;0.30;0.30;;;;;;;;;;5016057;28;20241;-68
2023/03/28 02:27:42;;;;;;;0.20;0.20;;;;;;;;;;5025018;28;20266;-69
2023/03/28 02:30:09;;;;;;;0.27;0.27;;;;;;;;;;5018812;28;20208;-67
2023/03/28 02:32:36;;;;;;;0.20;0.20;;;;;;;;;;5025105;28;20218;-69
2023/03/28 02:35:04;;;;;;;0.20;0.20;;;;;;;;;;5026346;28;20210;-69
2023/03/28 02:37:36;;;;;;;0.20;0.20;;;;;;;;;;5014048;28;20442;-69
2023/03/28 02:40:10;;;;;;;0.20;0.20;;;;;;;;;;5026230;28;20225;-69
2023/03/28 02:42:50;;;;;;;0.30;0.30;;;;;;;;;;4998375;28;20268;-68
2023/03/28 02:45:28;;;;;;;0.20;0.20;;;;;;;;;;5016034;28;20196;-68
2023/03/28 02:48:00;;;;;;;0.20;0.20;;;;;;;;;;5024965;28;20225;-68
2023/03/28 02:50:33;;;;;;;0.20;0.20;;;;;;;;;;5015821;28;20211;-68
2023/03/28 02:53:01;;;;;;;0.20;0.20;;;;;;;;;;5024901;28;20196;-69
2023/03/28 02:55:30;;;;;;;0.20;0.20;;;;;;;;;;5015607;28;20283;-68
2023/03/28 02:58:02;;;;;;;0.20;0.20;;;;;;;;;;5024858;28;20195;-70
2023/03/28 03:00:29;;;;;;;0.20;0.20;;;;;;;;;;5015260;28;20214;-71
2023/03/28 03:02:56;;;;;;;0.20;0.20;;;;;;;;;;5024603;28;20194;-69
2023/03/28 03:05:23;;;;;;;0.20;0.20;;;;;;;;;;5015204;28;20281;-68
2023/03/28 03:07:50;;;;;;;0.20;0.20;;;;;;;;;;5024292;28;20202;-68
2023/03/28 03:10:16;;;;;;;0.20;0.20;;;;;;;;;;5015158;28;20212;-67
2023/03/28 03:12:44;;;;;;;0.20;0.20;;;;;;;;;;5024398;28;20202;-68
2023/03/28 03:15:15;;;;;;;0.20;0.20;;;;;;;;;;5025036;28;20214;-69
2023/03/28 03:17:42;;;;;;;0.20;0.20;;;;;;;;;;4997713;28;20411;-69
2023/03/28 03:20:08;;;;;;;0.23;0.23;;;;;;;;;;5025216;28;20638;-69
2023/03/28 03:22:36;;;;;;;0.20;0.20;;;;;;;;;;5014062;28;20241;-69
2023/03/28 03:25:06;;;;;;;0.20;0.20;;;;;;;;;;5025907;28;20234;-69
2023/03/28 03:27:33;;;;;;;0.20;0.20;;;;;;;;;;5014645;28;20242;-69
2023/03/28 03:30:00;;;;;;;0.20;0.20;;;;;;;;;;5026002;28;20231;-69
2023/03/28 03:32:27;;;;;;;0.20;0.20;;;;;;;;;;5014666;28;20242;-69
2023/03/28 03:34:54;;;;;;;0.20;0.20;;;;;;;;;;5025830;28;20245;-70
2023/03/28 03:37:21;;;;;;;0.20;0.20;;;;;;;;;;5014087;28;20621;-68
2023/03/28 03:39:47;;;;;;;0.30;0.30;;;;;;;;;;5025700;28;20368;-69
2023/03/28 03:42:14;;;;;;;0.20;0.20;;;;;;;;;;5014627;28;20579;-68
2023/03/28 03:44:40;;;;;;;0.20;0.20;;;;;;;;;;5024500;28;20230;-69
2023/03/28 03:47:06;;;;;;;0.23;0.23;;;;;;;;;;5013811;28;20296;-69
2023/03/28 03:49:34;;;;;;;0.20;0.20;;;;;;;;;;5024681;28;20276;-68
2023/03/28 03:52:01;;;;;;;0.30;0.30;;;;;;;;;;5013788;28;20517;-69
2023/03/28 03:54:27;;;;;;;0.20;0.20;;;;;;;;;;5024791;28;20501;-69
2023/03/28 03:56:54;;;;;;;0.20;0.20;;;;;;;;;;5013536;28;20313;-69
2023/03/28 03:59:20;;;;;;;0.20;0.20;;;;;;;;;;5025212;28;20278;-68
2023/03/28 04:01:47;;;;;;;0.30;0.30;;;;;;;;;;5014579;28;20304;-69
2023/03/28 04:04:13;;;;;;;0.20;0.20;;;;;;;;;;5025079;28;20469;-69
2023/03/28 04:06:41;;;;;;;0.20;0.20;;;;;;;;;;5014514;28;20250;-68
2023/03/28 04:09:08;;;;;;;0.20;0.20;;;;;;;;;;5025058;28;20251;-69
2023/03/28 04:11:35;;;;;;;0.30;0.30;;;;;;;;;;5014520;28;20243;-69
2023/03/28 04:14:01;;;;;;;0.30;0.30;;;;;;;;;;5024929;28;20239;-69
2023/03/28 04:16:28;;;;;;;0.20;0.20;;;;;;;;;;5014350;28;20246;-69
2023/03/28 04:18:54;;;;;;;0.20;0.20;;;;;;;;;;5024441;28;20205;-69
2023/03/28 04:21:24;;;;;;;0.30;0.30;;;;;;;;;;5013733;28;20579;-69
2023/03/28 04:23:52;;;;;;;0.20;0.20;;;;;;;;;;5024102;28;20226;-68
2023/03/28 04:26:24;;;;;;;0.30;0.30;;;;;;;;;;5014052;28;20244;-68
2023/03/28 04:28:51;;;;;;;0.30;0.30;;;;;;;;;;5023922;28;20269;-68
2023/03/28 04:31:17;;;;;;;0.30;0.30;;;;;;;;;;5013528;28;20308;-68
2023/03/28 04:33:45;;;;;;;0.30;0.30;;;;;;;;;;5023499;28;20234;-69
2023/03/28 04:36:11;;;;;;;0.27;0.27;;;;;;;;;;5013492;28;20465;-68
2023/03/28 04:38:40;;;;;;;0.20;0.20;;;;;;;;;;5023693;28;20206;-68
2023/03/28 04:41:08;;;;;;;0.30;0.30;;;;;;;;;;5014365;28;20250;-68
2023/03/28 04:43:34;;;;;;;0.20;0.20;;;;;;;;;;5024098;28;20277;-68
2023/03/28 04:46:01;;;;;;;0.30;0.30;;;;;;;;;;5014148;28;20259;-69
2023/03/28 04:48:27;;;;;;;0.20;0.20;;;;;;;;;;5024140;28;20234;-68
2023/03/28 04:50:54;;;;;;;0.20;0.20;;;;;;;;;;5014458;28;20262;-69
2023/03/28 04:53:21;;;;;;;0.20;0.20;;;;;;;;;;5023949;28;20274;-69
2023/03/28 04:55:49;;;;;;;0.30;0.30;;;;;;;;;;5013474;28;20247;-69
2023/03/28 04:58:16;;;;;;;0.20;0.20;;;;;;;;;;5023444;28;20207;-69
2023/03/28 05:00:43;;;;;;;0.20;0.20;;;;;;;;;;5013771;28;20251;-69
2023/03/28 05:03:13;;;;;;;0.20;0.20;;;;;;;;;;5027521;28;20208;-69
2023/03/28 05:05:40;;;;;;;0.20;0.20;;;;;;;;;;5018193;28;20239;-69
2023/03/28 05:08:07;;;;;;;0.20;0.20;;;;;;;;;;5027574;28;20207;-69
2023/03/28 05:10:33;;;;;;;0.20;0.20;;;;;;;;;;5018029;28;20244;-68
2023/03/28 05:13:00;;;;;;;0.20;0.20;;;;;;;;;;5027033;28;20200;-68
2023/03/28 05:15:28;;;;;;;0.20;0.20;;;;;;;;;;5018439;28;20251;-68
2023/03/28 05:17:54;;;;;;;0.27;0.27;;;;;;;;;;5027493;28;20210;-68
2023/03/28 05:20:21;;;;;;;0.20;0.20;;;;;;;;;;5018493;28;20463;-69
2023/03/28 05:22:47;;;;;;;0.20;0.20;;;;;;;;;;5027676;28;20448;-68
2023/03/28 05:25:14;;;;;;;0.20;0.20;;;;;;;;;;5018164;28;20231;-68
2023/03/28 05:27:40;;;;;;;0.20;0.20;;;;;;;;;;5027496;28;20511;-69
2023/03/28 05:30:08;;;;;;;0.20;0.20;;;;;;;;;;5028405;28;20212;-69
2023/03/28 05:32:36;;;;;;;0.20;0.20;;;;;;;;;;5000463;28;20216;-69
2023/03/28 05:35:03;;;;;;;0.20;0.20;;;;;;;;;;5028154;28;20423;-69
2023/03/28 05:37:29;;;;;;;0.20;0.20;;;;;;;;;;5016999;28;20247;-69
2023/03/28 05:39:56;;;;;;;0.20;0.20;;;;;;;;;;5028289;28;20560;-69
2023/03/28 05:42:23;;;;;;;0.20;0.20;;;;;;;;;;5016950;28;20243;-69
2023/03/28 05:44:49;;;;;;;0.20;0.20;;;;;;;;;;5028111;28;20231;-69
2023/03/28 05:47:16;;;;;;;0.20;0.20;;;;;;;;;;5016695;28;20270;-69
2023/03/28 05:49:43;;;;;;;0.20;0.20;;;;;;;;;;5027619;28;20200;-71
2023/03/28 05:52:10;;;;;;;0.20;0.20;;;;;;;;;;5016042;28;20571;-69
2023/03/28 05:54:36;;;;;;;0.20;0.20;;;;;;;;;;5027289;28;20213;-69
2023/03/28 05:57:03;;;;;;;0.20;0.20;;;;;;;;;;5016219;28;20251;-69
2023/03/28 05:59:31;;;;;;;0.20;0.20;;;;;;;;;;5027550;28;20223;-68
2023/03/28 06:01:58;;;;;;;0.20;0.20;;;;;;;;;;5016570;28;20591;-69
2023/03/28 06:04:26;;;;;;;0.20;0.20;;;;;;;;;;5027422;28;20269;-69
2023/03/28 06:06:54;;;;;;;0.20;0.20;;;;;;;;;;5016521;28;20478;-69
2023/03/28 06:09:21;;;;;;;0.20;0.20;;;;;;;;;;5027547;28;20282;-68
2023/03/28 06:11:47;;;;;;;0.20;0.20;;;;;;;;;;5016403;28;20251;-68
2023/03/28 06:14:13;;;;;;;0.20;0.20;;;;;;;;;;5027032;28;20204;-68
2023/03/28 06:16:40;;;;;;;0.20;0.20;;;;;;;;;;5016449;28;20602;-68
2023/03/28 06:19:06;;;;;;;0.20;0.20;;;;;;;;;;5027326;28;20550;-68
2023/03/28 06:21:33;;;;;;;0.20;0.20;;;;;;;;;;5016610;28;20238;-68
2023/03/28 06:24:00;;;;;;;0.20;0.20;;;;;;;;;;5026059;28;20282;-69
2023/03/28 06:26:27;;;;;;;0.20;0.20;;;;;;;;;;5015629;28;20257;-69
2023/03/28 06:28:53;;;;;;;0.20;0.20;;;;;;;;;;5025996;28;20207;-69
2023/03/28 06:31:19;;;;;;;0.20;0.20;;;;;;;;;;5015541;28;20251;-68
2023/03/28 06:33:46;;;;;;;0.20;0.20;;;;;;;;;;5025713;28;20278;-68
2023/03/28 06:36:12;;;;;;;0.20;0.20;;;;;;;;;;5015427;28;20253;-68
2023/03/28 06:38:39;;;;;;;0.20;0.20;;;;;;;;;;5025270;28;20215;-69
2023/03/28 06:41:07;;;;;;;0.30;0.30;;;;;;;;;;5015478;28;20259;-68
2023/03/28 06:43:33;;;;;;;0.20;0.20;;;;;;;;;;5025341;28;20278;-68
2023/03/28 06:45:59;;;;;;;0.20;0.20;;;;;;;;;;5015228;28;20308;-68
2023/03/28 06:48:30;;;;;;;0.20;0.20;;;;;;;;;;5025402;28;20280;-68
2023/03/28 06:50:56;;;;;;;0.20;0.20;;;;;;;;;;5016279;28;20297;-68
2023/03/28 06:53:23;;;;;;;0.20;0.20;;;;;;;;;;5026302;28;20288;-69
2023/03/28 06:55:50;;;;;;;0.20;0.20;;;;;;;;;;5015875;28;20266;-69
2023/03/28 06:58:18;;;;;;;0.20;0.20;;;;;;;;;;5025371;28;20526;-69
2023/03/28 07:00:44;;;;;;;0.20;0.20;;;;;;;;;;5015778;28;20259;-69
2023/03/28 07:03:11;;;;;;;0.20;0.20;;;;;;;;;;5025629;28;20276;-69
2023/03/28 07:05:37;;;;;;;0.20;0.20;;;;;;;;;;5016169;28;20353;-69
2023/03/28 07:08:04;;;;;;;0.20;0.20;;;;;;;;;;5024789;28;20211;-68
2023/03/28 07:10:30;;;;;;;0.20;0.20;;;;;;;;;;5015047;28;20260;-69
2023/03/28 07:12:57;;;;;;;0.20;0.20;;;;;;;;;;5024226;28;20263;-68
2023/03/28 07:15:24;;;;;;;0.20;0.20;;;;;;;;;;5015152;28;20231;-69
2023/03/28 07:17:52;;;;;;;0.20;0.20;;;;;;;;;;5024650;28;20492;-69
2023/03/28 07:20:18;;;;;;;0.20;0.20;;;;;;;;;;5015268;28;20215;-68
2023/03/28 07:22:45;;;;;;;0.20;0.20;;;;;;;;;;5024737;28;20200;-68
2023/03/28 07:25:11;;;;;;;0.20;0.20;;;;;;;;;;5014951;28;20295;-67
2023/03/28 07:27:38;;;;;;;0.20;0.20;;;;;;;;;;5024715;28;20227;-69
2023/03/28 07:30:05;;;;;;;0.20;0.20;;;;;;;;;;5025806;28;20213;-68
2023/03/28 07:32:34;;;;;;;0.20;0.20;;;;;;;;;;4998191;28;20215;-69
2023/03/28 07:35:00;;;;;;;0.20;0.20;;;;;;;;;;5026006;28;20205;-68
2023/03/28 07:37:26;;;;;;;0.20;0.20;;;;;;;;;;5013840;28;20469;-69
2023/03/28 07:39:55;;;;;;;0.20;0.20;;;;;;;;;;5025128;28;20553;-69
2023/03/28 07:42:21;;;;;;;0.20;0.20;;;;;;;;;;5013670;28;20347;-68
2023/03/28 07:44:48;;;;;;;0.20;0.20;;;;;;;;;;5024983;28;20228;-69
2023/03/28 07:47:15;;;;;;;0.20;0.20;;;;;;;;;;5014512;28;20261;-69
2023/03/28 07:49:43;;;;;;;0.20;0.20;;;;;;;;;;5025039;28;20219;-69
2023/03/28 07:52:10;;;;;;;0.20;0.20;;;;;;;;;;5013627;28;20264;-69
2023/03/28 07:54:36;;;;;;;0.20;0.20;;;;;;;;;;5024412;28;20235;-68
2023/03/28 07:57:03;;;;;;;0.20;0.20;;;;;;;;;;5013492;28;20279;-69
2023/03/28 07:59:30;;;;;;;0.20;0.20;;;;;;;;;;5024580;28;20258;-68
2023/03/28 08:01:56;;;;;;;0.20;0.20;;;;;;;;;;5013476;28;20251;-69
2023/03/28 08:04:23;;;;;;;0.20;0.20;;;;;;;;;;5024498;28;20467;-68
2023/03/28 08:06:51;;;;;;;0.20;0.20;;;;;;;;;;5014528;28;20263;-68
2023/03/28 08:09:17;;;;;;;0.20;0.20;;;;;;;;;;5025094;28;20213;-69
2023/03/28 08:11:44;;;;;;;0.20;0.20;;;;;;;;;;5014090;28;20298;-68
2023/03/28 08:14:11;;;;;;;0.20;0.20;;;;;;;;;;5024875;28;20458;-68
2023/03/28 08:16:38;;;;;;;0.50;0.50;;;;;;;;;;5013937;28;20256;-68
2023/03/28 08:19:04;;;;;;;0.20;0.20;;;;;;;;;;5024081;28;20275;-68
2023/03/28 08:21:31;;;;;;;0.20;0.20;;;;;;;;;;5013334;28;20303;-68
2023/03/28 08:23:58;;;;;;;0.20;0.20;;;;;;;;;;5023911;28;20284;-68
2023/03/28 08:26:25;;;;;;;0.20;0.20;;;;;;;;;;5013446;28;20307;-67
2023/03/28 08:28:53;;;;;;;0.20;0.20;;;;;;;;;;5023901;28;20231;-68
2023/03/28 08:31:22;;;;;;;0.20;0.20;;;;;;;;;;5013479;28;20480;-68
2023/03/28 08:33:50;;;;;;;0.20;0.20;;;;;;;;;;5023794;28;20228;-68
2023/03/28 08:36:17;;;;;;;0.20;0.20;;;;;;;;;;5012556;28;20250;-68
2023/03/28 08:38:44;;;;;;;0.20;0.20;;;;;;;;;;5023453;28;20232;-68
2023/03/28 08:41:18;;;;;;;0.20;0.20;;;;;;;;;;5013234;28;20241;-69
2023/03/28 08:44:03;;;;;;;0.20;0.20;;;;;;;;;;5024417;28;20448;-69
2023/03/28 08:46:30;;;;;;;0.20;0.20;;;;;;;;;;5012681;28;20308;-68
2023/03/28 08:48:57;;;;;;;0.10;0.10;;;;;;;;;;5023644;28;20457;-69
2023/03/28 08:51:26;;;;;;;0.50;0.50;;;;;;;;;;5012974;28;20303;-69
2023/03/28 08:53:55;;;;;;;0.10;0.10;;;;;;;;;;5023656;28;20385;-68
2023/03/28 08:56:22;;;;;;;0.10;0.10;;;;;;;;;;5012944;28;20265;-69
2023/03/28 08:58:53;;;;;;;0.17;0.17;;;;;;;;;;5023506;28;20216;-68
2023/03/28 09:01:22;;;;;;;0.10;0.10;;;;;;;;;;5013015;28;20290;-68
2023/03/28 09:03:48;;;;;;;0.10;0.10;;;;;;;;;;5024222;28;20376;-68
2023/03/28 09:06:20;;;;;;;0.10;0.10;;;;;;;;;;5013499;28;20467;-69
2023/03/28 09:08:52;;;;;;;0.10;0.10;;;;;;;;;;5023840;28;20215;-68
2023/03/28 09:11:23;;;;;;;0.10;0.10;;;;;;;;;;5013834;28;20515;-69
2023/03/28 09:13:55;;;;;;;0.10;0.10;;;;;;;;;;5023571;28;20203;-68
2023/03/28 09:16:36;;;;;;;0.00;0.00;;;;;;;;;;5013415;28;20248;-68
2023/03/28 09:19:10;;;;;;;0.10;0.10;;;;;;;;;;5023930;28;20228;-68
2023/03/28 09:21:43;;;;;;;0.10;0.10;;;;;;;;;;5013376;28;20485;-68
2023/03/28 09:24:17;;;;;;;0.10;0.10;;;;;;;;;;5023757;28;20238;-68
2023/03/28 09:26:46;;;;;;;0.10;0.10;;;;;;;;;;5013339;28;20333;-68
2023/03/28 09:29:16;;;;;;;0.10;0.10;;;;;;;;;;5024155;28;20238;-68
2023/03/28 09:31:45;;;;;;;0.10;0.10;;;;;;;;;;5013177;28;20245;-68
2023/03/28 09:34:16;;;;;;;0.10;0.10;;;;;;;;;;5023589;28;20232;-68
2023/03/28 09:36:44;;;;;;;0.10;0.10;;;;;;;;;;5013230;28;20600;-68
2023/03/28 09:39:14;;;;;;;0.10;0.10;;;;;;;;;;5023720;28;20206;-68
2023/03/28 09:41:44;;;;;;;0.00;0.00;;;;;;;;;;5012638;28;20303;-68
2023/03/28 09:44:12;;;;;;;0.10;0.10;;;;;;;;;;5023212;28;20203;-68
2023/03/28 09:46:41;;;;;;;0.10;0.10;;;;;;;;;;5012448;28;20302;-68
2023/03/28 09:49:11;;;;;;;0.10;0.10;;;;;;;;;;5026826;28;20278;-68
2023/03/28 09:51:37;;;;;;;0.10;0.10;;;;;;;;;;5016123;28;20278;-68
2023/03/28 09:54:05;;;;;;;0.10;0.10;;;;;;;;;;5026811;28;20207;-68
2023/03/28 09:56:33;;;;;;;0.10;0.10;;;;;;;;;;5015828;28;20273;-67
2023/03/28 09:59:00;;;;;;;0.10;0.10;;;;;;;;;;5027016;28;20536;-68
2023/03/28 10:01:31;;;;;;;0.10;0.10;;;;;;;;;;5016221;28;20269;-67
2023/03/28 10:04:00;;;;;;;0.10;0.10;;;;;;;;;;5026592;28;20234;-68
2023/03/28 10:06:27;;;;;;;0.10;0.10;;;;;;;;;;5015866;28;20289;-67
2023/03/28 10:09:08;;;;;;;0.10;0.10;;;;;;;;;;5026792;28;20280;-68
2023/03/28 10:11:43;;;;;;;0.10;0.10;;;;;;;;;;5016055;28;20243;-68
2023/03/28 10:14:27;;;;;;;0.10;0.10;;;;;;;;;;5026790;28;20280;-68
2023/03/28 10:16:54;;;;;;;0.10;0.10;;;;;;;;;;5015579;28;20308;-68
2023/03/28 10:19:23;;;;;;;0.10;0.10;;;;;;;;;;5026791;28;20252;-68
2023/03/28 10:21:50;;;;;;;0.10;0.10;;;;;;;;;;5015805;28;20281;-69
2023/03/28 10:24:17;;;;;;;0.10;0.10;;;;;;;;;;5026606;28;20209;-62
2023/03/28 10:26:43;;;;;;;0.10;0.10;;;;;;;;;;5015669;28;20310;-74
2023/03/28 10:29:11;;;;;;;0.08;0.08;;;;;;;;;;5026162;28;20235;-69
2023/03/28 10:31:40;;;;;;;0.10;0.10;;;;;;;;;;5015601;28;20308;-61
2023/03/28 10:34:22;;;;;;;0.10;0.10;;;;;;;;;;5026087;28;20206;-60
2023/03/28 10:36:50;;;;;;;0.10;0.10;;;;;;;;;;5015213;28;20243;-72
2023/03/28 10:39:21;;;;;;;0.10;0.10;;;;;;;;;;5025646;28;20242;-71
2023/03/28 10:41:52;;;;;;;0.00;0.00;;;;;;;;;;5015181;28;20574;-71
2023/03/28 10:44:19;;;;;;;0.03;0.03;;;;;;;;;;5026164;28;20456;-71
2023/03/28 10:46:46;;;;;;;0.10;0.10;;;;;;;;;;5014830;28;20247;-71
2023/03/28 10:49:13;;;;;;;0.10;0.10;;;;;;;;;;5025809;28;20246;-71
2023/03/28 10:51:40;;;;;;;0.00;0.00;;;;;;;;;;5014833;28;20309;-71
2023/03/28 10:54:16;;;;;;;0.00;0.00;;;;;;;;;;5025565;28;20205;-71
2023/03/28 10:56:51;;;;;;;0.00;0.00;;;;;;;;;;5014783;28;20240;-71
2023/03/28 10:59:31;;;;;;;0.10;0.10;;;;;;;;;;5024648;28;20205;-70
2023/03/28 11:02:03;;;;;;;0.05;0.05;;;;;;;;;;5014576;28;20241;-70
2023/03/28 11:04:35;;;;;;;0.10;0.10;;;;;;;;;;5025411;28;20215;-71
2023/03/28 11:07:04;;;;;;;0.10;0.10;;;;;;;;;;5014372;28;20237;-71
2023/03/28 11:09:37;;;;;;;0.00;0.00;;;;;;;;;;5025716;28;20425;-71
2023/03/28 11:12:09;;;;;;;0.10;0.10;;;;;;;;;;5014464;28;20253;-62
2023/03/28 11:14:42;;;;;;;0.10;0.10;;;;;;;;;;5025667;28;20425;-72
2023/03/28 11:17:12;;;;;;;0.10;0.10;;;;;;;;;;5014283;28;20255;-72
2023/03/28 11:19:44;;;;;;;0.10;0.10;;;;;;;;;;5025666;28;20274;-72
2023/03/28 11:22:16;;;;;;;0.10;0.10;;;;;;;;;;5013965;28;20245;-72
2023/03/28 11:24:48;;;;;;;0.10;0.10;;;;;;;;;;5025542;28;20278;-72
2023/03/28 11:27:18;;;;;;;0.00;0.00;;;;;;;;;;5014141;28;20459;-71
2023/03/28 11:29:48;;;;;;;0.00;0.00;;;;;;;;;;5025587;28;20228;-72
2023/03/28 11:32:17;;;;;;;0.10;0.10;;;;;;;;;;5014172;28;20242;-73
2023/03/28 11:34:46;;;;;;;0.10;0.10;;;;;;;;;;5025228;28;20219;-77
2023/03/28 11:37:16;;;;;;;0.10;0.10;;;;;;;;;;5013723;28;20243;-72
2023/03/28 11:39:46;;;;;;;0.00;0.00;;;;;;;;;;5025169;28;20212;-72
2023/03/28 11:42:16;;;;;;;0.10;0.10;;;;;;;;;;5013627;28;20283;-72
2023/03/28 11:44:44;;;;;;;0.00;0.00;;;;;;;;;;5025325;28;20515;-72
2023/03/28 11:47:11;;;;;;;0.00;0.00;;;;;;;;;;5013716;28;20296;-71
2023/03/28 11:49:39;;;;;;;0.10;0.10;;;;;;;;;;5025601;28;20210;-64
2023/03/28 11:52:10;;;;;;;0.05;0.05;;;;;;;;;;5014229;28;20237;-64
2023/03/28 11:54:40;;;;;;;0.10;0.10;;;;;;;;;;5024918;28;20205;-64
2023/03/28 11:57:11;;;;;;;0.10;0.10;;;;;;;;;;5014191;28;20251;-64
2023/03/28 11:59:41;;;;;;;0.05;0.05;;;;;;;;;;5025260;28;20284;-64
2023/03/28 12:02:12;;;;;;;0.10;0.10;;;;;;;;;;5013999;28;20246;-64
2023/03/28 12:04:43;;;;;;;0.10;0.10;;;;;;;;;;5025512;28;20519;-64
2023/03/28 12:07:13;;;;;;;0.10;0.10;;;;;;;;;;5013794;28;20484;-64
2023/03/28 12:09:46;;;;;;;0.10;0.10;;;;;;;;;;5025078;28;20456;-64
2023/03/28 12:12:16;;;;;;;0.10;0.10;;;;;;;;;;5013563;28;20592;-64
2023/03/28 12:14:46;;;;;;;0.10;0.10;;;;;;;;;;5024799;28;20377;-64
2023/03/28 12:17:15;;;;;;;0.10;0.10;;;;;;;;;;5013454;28;20313;-64
2023/03/28 12:19:42;;;;;;;0.10;0.10;;;;;;;;;;5024738;28;20237;-63
2023/03/28 12:22:13;;;;;;;0.10;0.10;;;;;;;;;;5012840;28;20240;-63
2023/03/28 12:24:42;;;;;;;0.10;0.10;;;;;;;;;;5024708;28;20242;-63
2023/03/28 12:27:15;;;;;;;0.10;0.10;;;;;;;;;;5012878;28;20259;-64
2023/03/28 12:29:45;;;;;;;0.10;0.10;;;;;;;;;;5024693;28;20458;-64
2023/03/28 12:32:20;;;;;;;0.10;0.10;;;;;;;;;;5012992;28;20266;-64
2023/03/28 12:34:48;;;;;;;0.08;0.08;;;;;;;;;;5023892;28;20215;-64
2023/03/28 12:37:18;;;;;;;0.10;0.10;;;;;;;;;;5012912;28;20311;-63
2023/03/28 12:39:48;;;;;;;0.10;0.10;;;;;;;;;;5024399;28;20492;-64
2023/03/28 12:42:17;;;;;;;0.10;0.10;;;;;;;;;;5013602;28;20252;-63
2023/03/28 12:44:48;;;;;;;0.10;0.10;;;;;;;;;;5024505;28;20268;-64
2023/03/28 12:47:16;;;;;;;0.10;0.10;;;;;;;;;;5013308;28;20312;-64
2023/03/28 12:49:45;;;;;;;0.10;0.10;;;;;;;;;;5024887;28;20809;-64
2023/03/28 12:52:14;;;;;;;0.10;0.10;;;;;;;;;;5012710;28;20443;-63
2023/03/28 12:54:53;;;;;;;0.10;0.10;;;;;;;;;;5024930;28;20444;-64
2023/03/28 12:57:36;;;;;;;0.10;0.10;;;;;;;;;;5013235;28;20272;-64
2023/03/28 13:00:15;;;;;;;0.10;0.10;;;;;;;;;;5024133;28;20217;-64
2023/03/28 13:02:47;;;;;;;0.10;0.10;;;;;;;;;;5021948;28;20213;-64
2023/03/28 13:05:17;;;;;;;0.10;0.10;;;;;;;;;;5014578;28;20391;-64
2023/03/28 13:07:51;;;;;;;0.10;0.10;;;;;;;;;;5023157;28;20223;-64
2023/03/28 13:10:20;;;;;;;0.10;0.10;;;;;;;;;;5013431;28;20196;-64
2023/03/28 13:12:52;;;;;;;0.10;0.10;;;;;;;;;;5023363;28;20195;-64
2023/03/28 13:15:26;;;;;;;0.10;0.10;;;;;;;;;;5014188;28;20222;-64
2023/03/28 13:18:07;;;;;;;0.10;0.10;;;;;;;;;;5023257;28;20228;-64
2023/03/28 13:20:34;;;;;;;0.10;0.10;;;;;;;;;;5001240;28;20255;-64
2023/03/28 13:23:06;;;;;;;0.10;0.10;;;;;;;;;;5025746;28;20258;-63
2023/03/28 13:25:33;;;;;;;0.30;0.30;;;;;;;;;;5018137;28;20261;-64
2023/03/28 13:28:00;;;;;;;0.10;0.10;;;;;;;;;;5026721;28;20214;-64
2023/03/28 13:30:29;;;;;;;0.10;0.10;;;;;;;;;;5017422;28;20250;-64
2023/03/28 13:32:56;;;;;;;0.10;0.10;;;;;;;;;;5026732;28;20507;-64
2023/03/28 13:35:36;;;;;;;0.10;0.10;;;;;;;;;;5016935;28;20254;-64
2023/03/28 13:38:13;;;;;;;0.10;0.10;;;;;;;;;;5026365;28;20281;-64
2023/03/28 13:40:40;;;;;;;0.10;0.10;;;;;;;;;;5016777;28;20248;-64
2023/03/28 13:43:21;;;;;;;0.10;0.10;;;;;;;;;;5026428;28;20286;-64
2023/03/28 13:45:49;;;;;;;0.10;0.10;;;;;;;;;;5016900;28;20241;-64
2023/03/28 13:48:16;;;;;;;0.10;0.10;;;;;;;;;;5026388;28;20449;-64
2023/03/28 13:50:44;;;;;;;0.10;0.10;;;;;;;;;;5017405;28;20274;-64
2023/03/28 13:53:10;;;;;;;0.10;0.10;;;;;;;;;;5027167;28;20443;-64
2023/03/28 13:55:37;;;;;;;0.10;0.10;;;;;;;;;;5017500;28;20305;-64
2023/03/28 13:58:03;;;;;;;0.10;0.10;;;;;;;;;;5027100;28;20209;-64
2023/03/28 14:00:30;;;;;;;0.10;0.10;;;;;;;;;;5017267;28;20253;-64
2023/03/28 14:03:02;;;;;;;1.07;1.07;;;;;;;;;;5026646;28;20200;-64
2023/03/28 14:05:29;;;;;;;0.10;0.10;;;;;;;;;;5017441;28;20254;-64
2023/03/28 14:08:01;;;;;;;0.10;0.10;;;;;;;;;;5025982;28;20213;-65
2023/03/28 14:10:28;;;;;;;0.10;0.10;;;;;;;;;;5016884;28;20373;-64
2023/03/28 14:12:56;;;;;;;0.10;0.10;;;;;;;;;;5026463;28;20193;-64
2023/03/28 14:15:24;;;;;;;0.10;0.10;;;;;;;;;;5017296;28;20205;-64
2023/03/28 14:17:51;;;;;;;0.10;0.10;;;;;;;;;;5026510;28;20252;-64
2023/03/28 14:20:18;;;;;;;0.20;0.20;;;;;;;;;;5017601;28;20268;-64
2023/03/28 14:22:48;;;;;;;0.10;0.10;;;;;;;;;;5025847;28;20244;-64
2023/03/28 14:25:15;;;;;;;0.10;0.10;;;;;;;;;;5016658;28;20247;-63
2023/03/28 14:27:42;;;;;;;0.10;0.10;;;;;;;;;;5025415;28;20220;-63
2023/03/28 14:30:16;;;;;;;0.20;0.20;;;;;;;;;;5017468;28;20208;-60
2023/03/28 14:32:51;;;;;;;0.10;0.10;;;;;;;;;;5026260;28;20200;-64
2023/03/28 14:35:20;;;;;;;0.10;0.10;;;;;;;;;;5014902;28;20451;-64
2023/03/28 14:37:47;;;;;;;0.10;0.10;;;;;;;;;;5025264;28;20224;-64
2023/03/28 14:40:18;;;;;;;0.10;0.10;;;;;;;;;;5015831;28;20230;-65
2023/03/28 14:42:45;;;;;;;0.10;0.10;;;;;;;;;;5025980;28;20194;-64
2023/03/28 14:45:13;;;;;;;0.20;0.20;;;;;;;;;;5017153;28;20371;-64
2023/03/28 14:47:40;;;;;;;0.10;0.10;;;;;;;;;;5025738;28;20251;-65
2023/03/28 14:50:07;;;;;;;0.10;0.10;;;;;;;;;;5026862;28;20252;-64
2023/03/28 14:52:39;;;;;;;0.10;0.10;;;;;;;;;;4998735;28;20243;-64